sensor_id;sensor_type;location;lat;lon;timestamp;pressure;altitude;pressure_sealevel;temperature;humidity
64066;BME280;50318;54.760;9.408;2022-12-18T00:01:15;102289.66;;;-0.56;61.47
64066;BME280;50318;54.760;9.408;2022-12-18T00:03:42;102296.94;;;-0.56;61.20
64066;BME280;50318;54.760;9.408;2022-12-18T00:06:08;102296.28;;;-0.53;61.45
64066;BME280;50318;54.760;9.408;2022-12-18T00:08:35;102304.13;;;-0.48;61.50
64066;BME280;50318;54.760;9.408;2022-12-18T00:11:06;102291.66;;;-0.53;61.40
64066;BME280;50318;54.760;9.408;2022-12-18T00:13:33;102297.97;;;-0.49;61.60
64066;BME280;50318;54.760;9.408;2022-12-18T00:16:04;102309.66;;;-0.45;61.18
64066;BME280;50318;54.760;9.408;2022-12-18T00:18:32;102288.75;;;-0.48;60.99
64066;BME280;50318;54.760;9.408;2022-12-18T00:21:00;102280.56;;;-0.51;61.19
64066;BME280;50318;54.760;9.408;2022-12-18T00:23:28;102281.69;;;-0.52;61.17
64066;BME280;50318;54.760;9.408;2022-12-18T00:25:55;102280.09;;;-0.53;61.24
64066;BME280;50318;54.760;9.408;2022-12-18T00:28:24;102279.88;;;-0.60;61.08
64066;BME280;50318;54.760;9.408;2022-12-18T00:30:50;102275.03;;;-0.67;61.45
64066;BME280;50318;54.760;9.408;2022-12-18T00:33:17;102288.19;;;-0.66;61.19
64066;BME280;50318;54.760;9.408;2022-12-18T00:35:44;102278.19;;;-0.65;61.44
64066;BME280;50318;54.760;9.408;2022-12-18T00:38:10;102284.13;;;-0.59;61.46
64066;BME280;50318;54.760;9.408;2022-12-18T00:40:36;102287.63;;;-0.59;61.39
64066;BME280;50318;54.760;9.408;2022-12-18T00:43:02;102282.91;;;-0.62;61.28
64066;BME280;50318;54.760;9.408;2022-12-18T00:45:30;102291.31;;;-0.64;61.50
64066;BME280;50318;54.760;9.408;2022-12-18T00:47:56;102272.44;;;-0.76;61.42
64066;BME280;50318;54.760;9.408;2022-12-18T00:50:24;102283.13;;;-0.67;61.77
64066;BME280;50318;54.760;9.408;2022-12-18T00:52:51;102288.84;;;-0.69;61.17
64066;BME280;50318;54.760;9.408;2022-12-18T00:55:17;102293.56;;;-0.66;61.53
64066;BME280;50318;54.760;9.408;2022-12-18T00:57:46;102299.75;;;-0.65;61.17
64066;BME280;50318;54.760;9.408;2022-12-18T01:00:14;102293.25;;;-0.64;61.26
64066;BME280;50318;54.760;9.408;2022-12-18T01:02:42;102305.94;;;-0.65;61.22
64066;BME280;50318;54.760;9.408;2022-12-18T01:05:10;102300.41;;;-0.68;61.29
64066;BME280;50318;54.760;9.408;2022-12-18T01:07:37;102300.09;;;-0.67;61.64
64066;BME280;50318;54.760;9.408;2022-12-18T01:10:04;102305.81;;;-0.68;61.39
64066;BME280;50318;54.760;9.408;2022-12-18T01:12:31;102309.97;;;-0.71;61.45
64066;BME280;50318;54.760;9.408;2022-12-18T01:14:57;102298.97;;;-0.66;61.73
64066;BME280;50318;54.760;9.408;2022-12-18T01:17:24;102301.00;;;-0.63;61.50
64066;BME280;50318;54.760;9.408;2022-12-18T01:19:50;102303.22;;;-0.65;61.62
64066;BME280;50318;54.760;9.408;2022-12-18T01:22:16;102291.56;;;-0.69;61.33
64066;BME280;50318;54.760;9.408;2022-12-18T01:24:44;102300.53;;;-0.65;61.52
64066;BME280;50318;54.760;9.408;2022-12-18T01:27:10;102295.16;;;-0.65;61.47
64066;BME280;50318;54.760;9.408;2022-12-18T01:29:37;102304.59;;;-0.58;61.27
64066;BME280;50318;54.760;9.408;2022-12-18T01:32:03;102294.13;;;-0.60;61.10
64066;BME280;50318;54.760;9.408;2022-12-18T01:34:29;102306.16;;;-0.57;61.40
64066;BME280;50318;54.760;9.408;2022-12-18T01:36:56;102314.34;;;-0.54;61.26
64066;BME280;50318;54.760;9.408;2022-12-18T01:39:23;102326.38;;;-0.51;60.91
64066;BME280;50318;54.760;9.408;2022-12-18T01:41:49;102318.28;;;-0.51;61.36
64066;BME280;50318;54.760;9.408;2022-12-18T01:50:06;102316.16;;;-0.58;60.80
64066;BME280;50318;54.760;9.408;2022-12-18T01:52:34;102324.25;;;-0.58;60.94
64066;BME280;50318;54.760;9.408;2022-12-18T01:55:03;102326.81;;;-0.62;60.99
64066;BME280;50318;54.760;9.408;2022-12-18T01:57:30;102312.06;;;-0.76;60.75
64066;BME280;50318;54.760;9.408;2022-12-18T02:00:00;102338.59;;;-0.66;60.75
64066;BME280;50318;54.760;9.408;2022-12-18T02:02:41;102338.94;;;-0.68;61.17
64066;BME280;50318;54.760;9.408;2022-12-18T02:05:09;102331.31;;;-0.66;60.99
64066;BME280;50318;54.760;9.408;2022-12-18T02:07:45;102336.94;;;-0.58;61.02
64066;BME280;50318;54.760;9.408;2022-12-18T02:10:20;102343.09;;;-0.58;61.14
64066;BME280;50318;54.760;9.408;2022-12-18T02:12:57;102340.41;;;-0.58;60.93
64066;BME280;50318;54.760;9.408;2022-12-18T02:15:36;102331.31;;;-0.66;60.87
64066;BME280;50318;54.760;9.408;2022-12-18T02:18:11;102330.19;;;-0.65;60.97
64066;BME280;50318;54.760;9.408;2022-12-18T02:20:44;102330.53;;;-0.66;60.76
64066;BME280;50318;54.760;9.408;2022-12-18T02:26:11;102334.44;;;-0.64;60.89
64066;BME280;50318;54.760;9.408;2022-12-18T02:29:10;102340.19;;;-0.65;61.00
64066;BME280;50318;54.760;9.408;2022-12-18T02:31:43;102328.22;;;-0.76;61.01
64066;BME280;50318;54.760;9.408;2022-12-18T02:34:12;102345.91;;;-0.67;61.35
64066;BME280;50318;54.760;9.408;2022-12-18T02:36:42;102340.63;;;-0.63;61.26
64066;BME280;50318;54.760;9.408;2022-12-18T02:39:11;102320.94;;;-0.76;61.04
64066;BME280;50318;54.760;9.408;2022-12-18T02:41:46;102331.63;;;-0.67;60.91
64066;BME280;50318;54.760;9.408;2022-12-18T02:44:14;102333.09;;;-0.70;61.14
64066;BME280;50318;54.760;9.408;2022-12-18T02:46:43;102311.72;;;-0.75;61.01
64066;BME280;50318;54.760;9.408;2022-12-18T02:52:55;102335.00;;;-0.70;61.02
64066;BME280;50318;54.760;9.408;2022-12-18T02:55:25;102339.59;;;-0.71;61.14
64066;BME280;50318;54.760;9.408;2022-12-18T02:58:09;102348.00;;;-0.72;61.13
64066;BME280;50318;54.760;9.408;2022-12-18T03:03:36;102344.50;;;-0.85;61.25
64066;BME280;50318;54.760;9.408;2022-12-18T03:06:08;102347.31;;;-0.81;61.66
64066;BME280;50318;54.760;9.408;2022-12-18T03:08:40;102355.84;;;-0.79;61.50
64066;BME280;50318;54.760;9.408;2022-12-18T03:11:11;102360.22;;;-0.75;61.03
64066;BME280;50318;54.760;9.408;2022-12-18T03:13:52;102357.19;;;-0.73;61.29
64066;BME280;50318;54.760;9.408;2022-12-18T03:16:25;102350.56;;;-0.76;61.03
64066;BME280;50318;54.760;9.408;2022-12-18T03:19:16;102347.88;;;-0.76;61.00
64066;BME280;50318;54.760;9.408;2022-12-18T03:22:04;102345.41;;;-0.81;61.25
64066;BME280;50318;54.760;9.408;2022-12-18T03:25:06;102329.00;;;-0.88;61.08
64066;BME280;50318;54.760;9.408;2022-12-18T03:27:56;102333.59;;;-0.88;61.30
64066;BME280;50318;54.760;9.408;2022-12-18T03:30:46;102348.31;;;-0.86;61.57
64066;BME280;50318;54.760;9.408;2022-12-18T03:34:04;102336.28;;;-0.88;61.30
64066;BME280;50318;54.760;9.408;2022-12-18T03:36:59;102329.66;;;-0.91;61.50
64066;BME280;50318;54.760;9.408;2022-12-18T03:39:33;102339.09;;;-0.85;61.27
64066;BME280;50318;54.760;9.408;2022-12-18T03:42:16;102332.25;;;-0.82;61.30
64066;BME280;50318;54.760;9.408;2022-12-18T03:48:16;102340.44;;;-0.91;60.88
64066;BME280;50318;54.760;9.408;2022-12-18T03:55:53;102331.50;;;-1.04;61.26
64066;BME280;50318;54.760;9.408;2022-12-18T03:58:24;102346.34;;;-0.98;61.39
64066;BME280;50318;54.760;9.408;2022-12-18T04:01:01;102357.91;;;-0.97;61.40
64066;BME280;50318;54.760;9.408;2022-12-18T04:03:31;102359.47;;;-0.96;61.28
64066;BME280;50318;54.760;9.408;2022-12-18T04:05:58;102368.94;;;-0.90;61.31
64066;BME280;50318;54.760;9.408;2022-12-18T04:08:28;102374.66;;;-0.91;61.27
64066;BME280;50318;54.760;9.408;2022-12-18T04:11:04;102384.78;;;-0.88;60.98
64066;BME280;50318;54.760;9.408;2022-12-18T04:13:34;102390.97;;;-0.88;61.09
64066;BME280;50318;54.760;9.408;2022-12-18T04:16:05;102393.84;;;-0.93;60.71
64066;BME280;50318;54.760;9.408;2022-12-18T04:18:32;102392.59;;;-0.96;61.21
64066;BME280;50318;54.760;9.408;2022-12-18T04:21:00;102398.47;;;-0.94;60.98
64066;BME280;50318;54.760;9.408;2022-12-18T04:23:26;102402.06;;;-0.89;60.99
64066;BME280;50318;54.760;9.408;2022-12-18T04:25:56;102394.19;;;-0.95;60.64
64066;BME280;50318;54.760;9.408;2022-12-18T04:28:36;102398.47;;;-0.94;60.99
64066;BME280;50318;54.760;9.408;2022-12-18T04:31:02;102395.28;;;-0.96;60.99
64066;BME280;50318;54.760;9.408;2022-12-18T04:33:29;102389.09;;;-0.96;61.00
64066;BME280;50318;54.760;9.408;2022-12-18T04:35:55;102396.06;;;-0.95;60.96
64066;BME280;50318;54.760;9.408;2022-12-18T04:38:22;102390.69;;;-0.95;60.95
64066;BME280;50318;54.760;9.408;2022-12-18T04:40:55;102385.50;;;-1.00;60.48
64066;BME280;50318;54.760;9.408;2022-12-18T04:43:25;102380.09;;;-1.00;60.38
64066;BME280;50318;54.760;9.408;2022-12-18T04:46:01;102382.81;;;-1.00;60.93
64066;BME280;50318;54.760;9.408;2022-12-18T04:48:27;102381.69;;;-0.99;60.99
64066;BME280;50318;54.760;9.408;2022-12-18T04:50:53;102376.16;;;-1.03;61.01
64066;BME280;50318;54.760;9.408;2022-12-18T04:53:20;102374.59;;;-1.04;60.58
64066;BME280;50318;54.760;9.408;2022-12-18T04:55:46;102379.97;;;-1.04;60.64
64066;BME280;50318;54.760;9.408;2022-12-18T04:58:12;102387.16;;;-1.08;60.38
64066;BME280;50318;54.760;9.408;2022-12-18T05:00:38;102370.91;;;-1.20;60.66
64066;BME280;50318;54.760;9.408;2022-12-18T05:03:04;102391.94;;;-1.13;60.76
64066;BME280;50318;54.760;9.408;2022-12-18T05:05:30;102388.81;;;-1.15;60.85
64066;BME280;50318;54.760;9.408;2022-12-18T05:07:57;102392.28;;;-1.15;60.79
64066;BME280;50318;54.760;9.408;2022-12-18T05:10:23;102395.09;;;-1.11;60.80
64066;BME280;50318;54.760;9.408;2022-12-18T05:12:49;102400.28;;;-1.06;60.73
64066;BME280;50318;54.760;9.408;2022-12-18T05:15:15;102403.31;;;-1.08;61.04
64066;BME280;50318;54.760;9.408;2022-12-18T05:17:42;102403.91;;;-1.02;61.27
64066;BME280;50318;54.760;9.408;2022-12-18T05:20:09;102407.03;;;-1.00;60.93
64066;BME280;50318;54.760;9.408;2022-12-18T05:22:37;102422.53;;;-0.97;60.87
64066;BME280;50318;54.760;9.408;2022-12-18T05:25:04;102418.47;;;-1.03;60.82
64066;BME280;50318;54.760;9.408;2022-12-18T05:27:30;102411.50;;;-1.04;61.01
64066;BME280;50318;54.760;9.408;2022-12-18T05:29:56;102423.66;;;-0.98;60.93
64066;BME280;50318;54.760;9.408;2022-12-18T05:32:22;102424.59;;;-0.94;60.98
64066;BME280;50318;54.760;9.408;2022-12-18T05:34:49;102405.81;;;-1.03;60.86
64066;BME280;50318;54.760;9.408;2022-12-18T05:37:15;102416.69;;;-0.99;60.52
64066;BME280;50318;54.760;9.408;2022-12-18T05:39:42;102427.59;;;-0.96;60.56
64066;BME280;50318;54.760;9.408;2022-12-18T05:42:08;102427.94;;;-0.97;60.54
64066;BME280;50318;54.760;9.408;2022-12-18T05:44:34;102418.72;;;-0.96;60.69
64066;BME280;50318;54.760;9.408;2022-12-18T05:47:01;102432.69;;;-0.94;60.50
64066;BME280;50318;54.760;9.408;2022-12-18T05:49:27;102430.78;;;-0.94;60.43
64066;BME280;50318;54.760;9.408;2022-12-18T05:51:53;102419.28;;;-1.03;60.37
64066;BME280;50318;54.760;9.408;2022-12-18T05:54:19;102422.94;;;-1.07;60.55
64066;BME280;50318;54.760;9.408;2022-12-18T05:56:45;102407.66;;;-1.15;60.93
64066;BME280;50318;54.760;9.408;2022-12-18T05:59:11;102434.38;;;-1.10;60.77
64066;BME280;50318;54.760;9.408;2022-12-18T06:01:38;102432.03;;;-1.12;60.84
64066;BME280;50318;54.760;9.408;2022-12-18T06:04:04;102435.97;;;-1.09;60.67
64066;BME280;50318;54.760;9.408;2022-12-18T06:06:30;102426.31;;;-1.10;60.87
64066;BME280;50318;54.760;9.408;2022-12-18T06:08:57;102427.09;;;-1.10;60.59
64066;BME280;50318;54.760;9.408;2022-12-18T06:11:25;102427.28;;;-1.15;60.72
64066;BME280;50318;54.760;9.408;2022-12-18T06:13:53;102417.47;;;-1.19;60.72
64066;BME280;50318;54.760;9.408;2022-12-18T06:16:20;102421.13;;;-1.15;60.67
64066;BME280;50318;54.760;9.408;2022-12-18T06:18:46;102426.31;;;-1.10;61.03
64066;BME280;50318;54.760;9.408;2022-12-18T06:21:13;102425.97;;;-1.09;60.70
64066;BME280;50318;54.760;9.408;2022-12-18T06:23:39;102426.63;;;-1.12;60.78
64066;BME280;50318;54.760;9.408;2022-12-18T06:26:09;102425.97;;;-1.09;60.83
64066;BME280;50318;54.760;9.408;2022-12-18T06:28:35;102420.31;;;-1.16;60.59
64066;BME280;50318;54.760;9.408;2022-12-18T06:31:03;102424.44;;;-1.18;60.76
64066;BME280;50318;54.760;9.408;2022-12-18T06:33:29;102428.41;;;-1.16;60.87
64066;BME280;50318;54.760;9.408;2022-12-18T06:36:04;102425.72;;;-1.16;60.61
64066;BME280;50318;54.760;9.408;2022-12-18T06:38:32;102429.19;;;-1.15;60.37
64066;BME280;50318;54.760;9.408;2022-12-18T06:40:59;102430.03;;;-1.24;60.38
64066;BME280;50318;54.760;9.408;2022-12-18T06:43:25;102440.00;;;-1.24;60.46
64066;BME280;50318;54.760;9.408;2022-12-18T06:45:58;102443.34;;;-1.27;60.40
64066;BME280;50318;54.760;9.408;2022-12-18T06:48:24;102448.16;;;-1.33;60.40
64066;BME280;50318;54.760;9.408;2022-12-18T06:50:50;102451.28;;;-1.31;60.49
64066;BME280;50318;54.760;9.408;2022-12-18T06:53:17;102436.59;;;-1.33;60.92
64066;BME280;50318;54.760;9.408;2022-12-18T06:55:43;102458.06;;;-1.25;60.72
64066;BME280;50318;54.760;9.408;2022-12-18T06:58:09;102462.66;;;-1.25;60.32
64066;BME280;50318;54.760;9.408;2022-12-18T07:00:35;102470.88;;;-1.21;60.47
64066;BME280;50318;54.760;9.408;2022-12-18T07:03:02;102475.81;;;-1.24;60.44
64066;BME280;50318;54.760;9.408;2022-12-18T07:05:28;102479.94;;;-1.26;60.32
64066;BME280;50318;54.760;9.408;2022-12-18T07:07:54;102485.19;;;-1.30;60.43
64066;BME280;50318;54.760;9.408;2022-12-18T07:10:20;102475.53;;;-1.31;60.27
64066;BME280;50318;54.760;9.408;2022-12-18T07:12:46;102465.59;;;-1.39;60.53
64066;BME280;50318;54.760;9.408;2022-12-18T07:15:13;102491.16;;;-1.24;60.53
64066;BME280;50318;54.760;9.408;2022-12-18T07:17:39;102501.91;;;-1.15;61.06
64066;BME280;50318;54.760;9.408;2022-12-18T07:20:06;102498.44;;;-1.16;60.63
64066;BME280;50318;54.760;9.408;2022-12-18T07:22:32;102508.22;;;-1.11;60.86
64066;BME280;50318;54.760;9.408;2022-12-18T07:24:58;102509.13;;;-1.07;60.74
64066;BME280;50318;54.760;9.408;2022-12-18T07:27:24;102514.19;;;-1.06;60.67
64066;BME280;50318;54.760;9.408;2022-12-18T07:29:50;102512.16;;;-1.09;60.64
64066;BME280;50318;54.760;9.408;2022-12-18T07:32:16;102515.31;;;-1.07;60.54
64066;BME280;50318;54.760;9.408;2022-12-18T07:34:43;102523.53;;;-1.03;60.45
64066;BME280;50318;54.760;9.408;2022-12-18T07:37:09;102521.16;;;-1.05;60.15
64066;BME280;50318;54.760;9.408;2022-12-18T07:39:35;102516.31;;;-1.11;60.58
64066;BME280;50318;54.760;9.408;2022-12-18T07:42:01;102523.41;;;-1.07;60.37
64066;BME280;50318;54.760;9.408;2022-12-18T07:44:28;102526.09;;;-1.07;60.37
64066;BME280;50318;54.760;9.408;2022-12-18T07:46:54;102527.53;;;-1.09;60.41
64066;BME280;50318;54.760;9.408;2022-12-18T07:49:20;102535.75;;;-1.06;60.02
64066;BME280;50318;54.760;9.408;2022-12-18T07:51:46;102534.97;;;-1.06;60.21
64066;BME280;50318;54.760;9.408;2022-12-18T07:54:12;102527.06;;;-1.11;60.29
64066;BME280;50318;54.760;9.408;2022-12-18T07:56:38;102529.13;;;-1.08;60.08
64066;BME280;50318;54.760;9.408;2022-12-18T07:59:04;102531.81;;;-1.08;59.90
64066;BME280;50318;54.760;9.408;2022-12-18T08:01:31;102534.03;;;-1.10;60.31
64066;BME280;50318;54.760;9.408;2022-12-18T08:03:57;102554.28;;;-1.04;60.50
64066;BME280;50318;54.760;9.408;2022-12-18T08:06:24;102543.69;;;-1.09;60.01
64066;BME280;50318;54.760;9.408;2022-12-18T08:08:54;102540.81;;;-1.04;60.10
64066;BME280;50318;54.760;9.408;2022-12-18T08:11:21;102535.41;;;-1.04;59.98
64066;BME280;50318;54.760;9.408;2022-12-18T08:13:48;102514.25;;;-1.14;60.01
64066;BME280;50318;54.760;9.408;2022-12-18T08:16:14;102530.69;;;-1.07;60.14
64066;BME280;50318;54.760;9.408;2022-12-18T08:18:40;102530.81;;;-1.04;60.13
64066;BME280;50318;54.760;9.408;2022-12-18T08:23:37;102530.97;;;-1.00;59.97
64066;BME280;50318;54.760;9.408;2022-12-18T08:26:04;102517.63;;;-0.97;60.12
64066;BME280;50318;54.760;9.408;2022-12-18T08:28:30;102520.16;;;-0.91;60.01
64066;BME280;50318;54.760;9.408;2022-12-18T08:30:56;102518.50;;;-0.84;60.20
64066;BME280;50318;54.760;9.408;2022-12-18T08:33:22;102519.44;;;-0.80;59.80
64066;BME280;50318;54.760;9.408;2022-12-18T08:35:48;102518.63;;;-0.80;59.68
64066;BME280;50318;54.760;9.408;2022-12-18T08:38:15;102517.31;;;-0.74;59.76
64066;BME280;50318;54.760;9.408;2022-12-18T08:40:41;102515.41;;;-0.74;59.66
64066;BME280;50318;54.760;9.408;2022-12-18T08:43:09;102505.28;;;-0.77;59.85
64066;BME280;50318;54.760;9.408;2022-12-18T08:45:36;102524.28;;;-0.73;59.67
64066;BME280;50318;54.760;9.408;2022-12-18T08:48:02;102511.13;;;-0.75;59.80
64066;BME280;50318;54.760;9.408;2022-12-18T08:50:28;102516.16;;;-0.65;60.00
64066;BME280;50318;54.760;9.408;2022-12-18T08:52:54;102514.97;;;-0.55;59.78
64066;BME280;50318;54.760;9.408;2022-12-18T08:55:20;102513.84;;;-0.54;59.81
64066;BME280;50318;54.760;9.408;2022-12-18T08:57:50;102511.44;;;-0.47;59.62
64066;BME280;50318;54.760;9.408;2022-12-18T09:00:16;102512.22;;;-0.46;59.35
64066;BME280;50318;54.760;9.408;2022-12-18T09:02:42;102522.91;;;-0.38;59.32
64066;BME280;50318;54.760;9.408;2022-12-18T09:05:08;102526.06;;;-0.36;59.38
64066;BME280;50318;54.760;9.408;2022-12-18T09:07:35;102523.38;;;-0.36;59.42
64066;BME280;50318;54.760;9.408;2022-12-18T09:10:01;102505.81;;;-0.42;59.35
64066;BME280;50318;54.760;9.408;2022-12-18T09:12:27;102522.72;;;-0.33;59.12
64066;BME280;50318;54.760;9.408;2022-12-18T09:14:53;102513.59;;;-0.40;59.14
64066;BME280;50318;54.760;9.408;2022-12-18T09:17:19;102531.59;;;-0.32;59.45
64066;BME280;50318;54.760;9.408;2022-12-18T09:19:46;102531.38;;;-0.27;59.50
64066;BME280;50318;54.760;9.408;2022-12-18T09:22:12;102536.09;;;-0.24;59.31
64066;BME280;50318;54.760;9.408;2022-12-18T09:24:38;102534.53;;;-0.25;59.39
64066;BME280;50318;54.760;9.408;2022-12-18T09:27:04;102527.72;;;-0.22;59.30
64066;BME280;50318;54.760;9.408;2022-12-18T09:29:31;102535.47;;;-0.21;59.13
64066;BME280;50318;54.760;9.408;2022-12-18T09:31:58;102533.41;;;-0.24;59.36
64066;BME280;50318;54.760;9.408;2022-12-18T09:34:24;102542.78;;;-0.21;59.25
64066;BME280;50318;54.760;9.408;2022-12-18T09:36:50;102543.22;;;-0.19;59.06
64066;BME280;50318;54.760;9.408;2022-12-18T09:39:16;102533.69;;;-0.17;59.40
64066;BME280;50318;54.760;9.408;2022-12-18T09:41:46;102539.53;;;-0.15;58.92
64066;BME280;50318;54.760;9.408;2022-12-18T09:46:56;102537.28;;;-0.13;59.18
64066;BME280;50318;54.760;9.408;2022-12-18T09:49:27;102542.25;;;-0.03;59.52
64066;BME280;50318;54.760;9.408;2022-12-18T09:51:59;102543.53;;;0.00;59.28
64066;BME280;50318;54.760;9.408;2022-12-18T09:54:41;102547.50;;;0.15;59.29
64066;BME280;50318;54.760;9.408;2022-12-18T09:57:17;102543.00;;;0.19;59.32
64066;BME280;50318;54.760;9.408;2022-12-18T09:59:50;102539.84;;;0.17;59.15
64066;BME280;50318;54.760;9.408;2022-12-18T10:02:21;102547.38;;;0.23;59.34
64066;BME280;50318;54.760;9.408;2022-12-18T10:05:06;102554.41;;;0.24;58.47
64066;BME280;50318;54.760;9.408;2022-12-18T10:10:29;102553.84;;;0.43;58.39
64066;BME280;50318;54.760;9.408;2022-12-18T10:13:17;102550.97;;;0.48;58.91
64066;BME280;50318;54.760;9.408;2022-12-18T10:16:16;102548.94;;;0.57;58.76
64066;BME280;50318;54.760;9.408;2022-12-18T10:18:54;102555.69;;;0.64;59.04
64066;BME280;50318;54.760;9.408;2022-12-18T10:21:51;102562.69;;;0.77;59.04
64066;BME280;50318;54.760;9.408;2022-12-18T10:27:18;102556.13;;;0.90;58.22
64066;BME280;50318;54.760;9.408;2022-12-18T10:29:47;102557.97;;;0.98;58.72
64066;BME280;50318;54.760;9.408;2022-12-18T10:32:26;102568.31;;;1.08;58.31
64066;BME280;50318;54.760;9.408;2022-12-18T10:34:55;102553.88;;;1.16;58.20
64066;BME280;50318;54.760;9.408;2022-12-18T10:37:24;102546.09;;;1.15;57.91
64066;BME280;50318;54.760;9.408;2022-12-18T10:40:12;102551.94;;;1.29;57.79
64066;BME280;50318;54.760;9.408;2022-12-18T10:42:39;102554.50;;;1.38;57.64
64066;BME280;50318;54.760;9.408;2022-12-18T10:45:13;102554.50;;;1.38;57.29
64066;BME280;50318;54.760;9.408;2022-12-18T10:47:44;102553.03;;;1.40;57.10
64066;BME280;50318;54.760;9.408;2022-12-18T10:50:38;102560.38;;;1.40;56.78
64066;BME280;50318;54.760;9.408;2022-12-18T10:53:05;102546.75;;;1.36;56.98
64066;BME280;50318;54.760;9.408;2022-12-18T10:55:37;102547.44;;;1.33;56.82
64066;BME280;50318;54.760;9.408;2022-12-18T10:58:25;102548.13;;;1.30;56.76
64066;BME280;50318;54.760;9.408;2022-12-18T11:01:09;102547.66;;;1.28;56.69
64066;BME280;50318;54.760;9.408;2022-12-18T11:03:44;102544.88;;;1.25;57.08
64066;BME280;50318;54.760;9.408;2022-12-18T11:06:13;102550.47;;;1.32;57.50
64066;BME280;50318;54.760;9.408;2022-12-18T11:08:42;102551.81;;;1.38;57.91
64066;BME280;50318;54.760;9.408;2022-12-18T11:11:19;102543.91;;;1.45;57.66
64066;BME280;50318;54.760;9.408;2022-12-18T11:14:05;102531.03;;;1.54;57.29
64066;BME280;50318;54.760;9.408;2022-12-18T11:16:42;102528.44;;;1.58;56.93
64066;BME280;50318;54.760;9.408;2022-12-18T11:21:51;102524.56;;;1.43;56.72
64066;BME280;50318;54.760;9.408;2022-12-18T11:26:49;102543.25;;;1.48;56.97
64066;BME280;50318;54.760;9.408;2022-12-18T11:29:18;102539.59;;;1.56;56.92
64066;BME280;50318;54.760;9.408;2022-12-18T11:31:48;102550.06;;;1.58;56.58
64066;BME280;50318;54.760;9.408;2022-12-18T11:34:26;102552.78;;;1.58;56.65
64066;BME280;50318;54.760;9.408;2022-12-18T11:36:54;102549.63;;;1.56;56.36
64066;BME280;50318;54.760;9.408;2022-12-18T11:39:46;102536.00;;;1.52;56.82
64066;BME280;50318;54.760;9.408;2022-12-18T11:42:27;102533.09;;;1.45;56.53
64066;BME280;50318;54.760;9.408;2022-12-18T11:50:49;102535.22;;;1.51;56.67
64066;BME280;50318;54.760;9.408;2022-12-18T11:53:17;102530.59;;;1.52;56.53
64066;BME280;50318;54.760;9.408;2022-12-18T12:00:51;102529.28;;;1.46;56.26
64066;BME280;50318;54.760;9.408;2022-12-18T12:09:02;102516.19;;;1.48;56.65
64066;BME280;50318;54.760;9.408;2022-12-18T12:11:55;102518.44;;;1.46;56.61
64066;BME280;50318;54.760;9.408;2022-12-18T12:17:36;102505.97;;;1.29;56.77
64066;BME280;50318;54.760;9.408;2022-12-18T12:20:42;102496.88;;;1.21;57.24
64066;BME280;50318;54.760;9.408;2022-12-18T12:23:23;102487.66;;;1.22;57.42
64066;BME280;50318;54.760;9.408;2022-12-18T12:25:59;102479.38;;;1.31;57.47
64066;BME280;50318;54.760;9.408;2022-12-18T12:28:48;102471.13;;;1.40;57.72
64066;BME280;50318;54.760;9.408;2022-12-18T12:31:31;102463.31;;;1.50;57.01
64066;BME280;50318;54.760;9.408;2022-12-18T12:39:37;102439.94;;;1.58;57.11
64066;BME280;50318;54.760;9.408;2022-12-18T12:42:11;102430.78;;;1.63;57.07
64066;BME280;50318;54.760;9.408;2022-12-18T12:44:47;102431.34;;;1.68;56.77
64066;BME280;50318;54.760;9.408;2022-12-18T12:47:32;102421.75;;;1.71;56.92
64066;BME280;50318;54.760;9.408;2022-12-18T12:50:01;102425.59;;;1.70;57.11
64066;BME280;50318;54.760;9.408;2022-12-18T12:52:41;102427.94;;;1.71;56.76
64066;BME280;50318;54.760;9.408;2022-12-18T12:55:15;102432.66;;;1.74;56.83
64066;BME280;50318;54.760;9.408;2022-12-18T13:01:01;102441.91;;;1.73;56.68
64066;BME280;50318;54.760;9.408;2022-12-18T13:03:53;102448.19;;;1.77;56.82
64066;BME280;50318;54.760;9.408;2022-12-18T13:08:58;102459.94;;;1.97;57.05
64066;BME280;50318;54.760;9.408;2022-12-18T13:11:30;102457.41;;;2.04;56.56
64066;BME280;50318;54.760;9.408;2022-12-18T13:13:57;102452.84;;;2.08;56.49
64066;BME280;50318;54.760;9.408;2022-12-18T13:16:25;102456.13;;;2.14;56.47
64066;BME280;50318;54.760;9.408;2022-12-18T13:18:56;102449.91;;;2.13;56.10
64066;BME280;50318;54.760;9.408;2022-12-18T13:21:31;102447.09;;;2.10;55.76
64066;BME280;50318;54.760;9.408;2022-12-18T13:24:30;102448.94;;;2.06;55.77
64066;BME280;50318;54.760;9.408;2022-12-18T13:26:57;102438.72;;;1.99;56.20
64066;BME280;50318;54.760;9.408;2022-12-18T13:29:55;102445.19;;;1.95;56.05
64066;BME280;50318;54.760;9.408;2022-12-18T13:32:24;102445.19;;;1.95;55.73
64066;BME280;50318;54.760;9.408;2022-12-18T13:38:02;102460.97;;;1.93;56.27
64066;BME280;50318;54.760;9.408;2022-12-18T13:43:27;102456.25;;;1.90;56.10
64066;BME280;50318;54.760;9.408;2022-12-18T13:46:04;102465.84;;;1.87;55.94
64066;BME280;50318;54.760;9.408;2022-12-18T13:48:33;102452.22;;;1.83;55.73
64066;BME280;50318;54.760;9.408;2022-12-18T13:51:07;102460.00;;;1.85;56.30
64066;BME280;50318;54.760;9.408;2022-12-18T13:53:53;102460.59;;;1.78;55.91
64066;BME280;50318;54.760;9.408;2022-12-18T13:56:24;102470.28;;;1.79;56.22
64066;BME280;50318;54.760;9.408;2022-12-18T14:01:35;102473.78;;;1.80;56.50
64066;BME280;50318;54.760;9.408;2022-12-18T14:04:20;102478.06;;;1.81;56.45
64066;BME280;50318;54.760;9.408;2022-12-18T14:06:47;102469.50;;;1.79;56.22
64066;BME280;50318;54.760;9.408;2022-12-18T14:09:20;102455.63;;;1.80;56.39
64066;BME280;50318;54.760;9.408;2022-12-18T14:11:48;102453.34;;;1.82;56.43
64066;BME280;50318;54.760;9.408;2022-12-18T14:14:17;102444.72;;;1.77;56.51
64066;BME280;50318;54.760;9.408;2022-12-18T14:16:45;102432.84;;;1.81;56.87
64066;BME280;50318;54.760;9.408;2022-12-18T14:19:17;102430.56;;;1.83;56.07
64066;BME280;50318;54.760;9.408;2022-12-18T14:21:47;102434.50;;;1.86;56.46
64066;BME280;50318;54.760;9.408;2022-12-18T14:24:17;102444.09;;;1.83;56.37
64066;BME280;50318;54.760;9.408;2022-12-18T14:26:44;102445.94;;;1.79;56.04
64066;BME280;50318;54.760;9.408;2022-12-18T14:29:28;102441.03;;;1.69;56.20
64066;BME280;50318;54.760;9.408;2022-12-18T14:34:31;102432.97;;;1.57;56.85